createdAt,value
2023-01-04T00:01:23.113Z,98091.50
2023-01-04T00:06:26.391Z,98108.50
2023-01-04T00:11:28.980Z,98108.50
2023-01-04T00:16:31.692Z,98123.78
2023-01-04T00:21:34.394Z,98129.72
2023-01-04T00:26:37.273Z,98131.44
2023-01-04T00:31:40.120Z,98137.44
2023-01-04T00:36:43.059Z,98144.16
2023-01-04T00:42:00.217Z,98201.88
2023-01-04T00:47:04.985Z,98231.41
2023-01-04T00:52:08.196Z,98260.66
2023-01-04T00:57:10.814Z,98279.63
2023-01-04T01:02:13.614Z,98301.44
2023-01-04T01:07:16.401Z,98307.19
2023-01-04T01:12:18.991Z,98312.09
2023-01-04T01:17:21.560Z,98348.50
2023-01-04T01:22:24.073Z,98343.34
2023-01-04T01:27:26.773Z,98321.66
2023-01-04T01:32:29.670Z,98351.31
2023-01-04T01:37:32.306Z,98404.63
2023-01-04T01:42:35.240Z,98386.16
2023-01-04T01:47:44.953Z,98449.50
2023-01-04T01:52:50.097Z,98437.34
2023-01-04T01:57:55.764Z,98466.59
2023-01-04T02:03:15.672Z,98486.66
2023-01-04T02:08:22.512Z,98491.09
2023-01-04T02:13:48.769Z,98516.78
2023-01-04T02:19:17.179Z,98545.09
2023-01-04T02:24:19.603Z,98560.38
2023-01-04T02:29:30.966Z,98571.50
2023-01-04T02:34:33.429Z,98595.38
2023-01-04T02:40:08.009Z,98598.88
2023-01-04T02:45:12.249Z,98615.84
2023-01-04T02:50:32.414Z,98616.72
2023-01-04T02:55:49.385Z,98645.06
2023-01-04T03:01:44.168Z,98646.75
2023-01-04T03:07:13.223Z,98666.91
2023-01-04T03:12:33.910Z,98664.66
2023-01-04T03:17:59.347Z,98688.50
2023-01-04T03:23:23.330Z,98724.16
2023-01-04T03:28:49.662Z,98716.91
2023-01-04T03:34:11.272Z,98717.78
2023-01-04T03:39:48.326Z,98745.63
2023-01-04T03:45:35.580Z,98772.63
2023-01-04T03:50:42.724Z,98758.75
2023-01-04T03:55:47.605Z,98775.22
2023-01-04T04:00:50.705Z,98777.03
2023-01-04T04:06:11.832Z,98796.97
2023-01-04T04:11:32.817Z,98797.28
2023-01-04T04:16:35.661Z,98801.63
2023-01-04T04:21:38.464Z,98805.66
2023-01-04T04:26:41.023Z,98850.81
2023-01-04T04:31:44.018Z,98854.91
2023-01-04T04:36:46.627Z,98862.66
2023-01-04T04:41:49.179Z,98879.72
2023-01-04T04:46:51.776Z,98847.91
2023-01-04T04:51:54.331Z,98880.25
2023-01-04T04:56:56.903Z,98902.94
2023-01-04T05:01:59.501Z,98930.22
2023-01-04T05:07:06.326Z,98939.34
2023-01-04T05:12:31.291Z,98937.44
2023-01-04T05:17:33.870Z,98956.94
2023-01-04T05:22:36.400Z,98957.13
2023-01-04T05:27:39.092Z,98967.03
2023-01-04T05:32:41.712Z,98952.84
2023-01-04T05:37:44.317Z,98974.47
2023-01-04T05:42:47.761Z,99000.06
2023-01-04T05:47:52.032Z,99001.47
2023-01-04T05:52:54.708Z,98997.25
2023-01-04T05:57:57.278Z,99017.22
2023-01-04T06:02:59.984Z,98982.88
2023-01-04T06:08:02.879Z,99031.88
2023-01-04T06:13:05.571Z,99030.94
2023-01-04T06:18:13.124Z,99043.06
2023-01-04T06:23:16.364Z,99071.56
2023-01-04T06:28:18.947Z,99075.78
2023-01-04T06:33:21.579Z,99084.94
2023-01-04T06:38:24.158Z,99073.13
2023-01-04T06:43:26.727Z,99094.97
2023-01-04T06:48:29.360Z,99086.28
2023-01-04T06:53:31.975Z,99095.31
2023-01-04T06:58:34.926Z,99113.63
2023-01-04T07:03:37.527Z,99118.81
2023-01-04T07:08:40.154Z,99130.00
2023-01-04T07:13:42.792Z,99147.53
2023-01-04T07:18:45.310Z,99138.81
2023-01-04T07:23:47.887Z,99161.63
2023-01-04T07:29:09.092Z,99175.31
2023-01-04T07:34:12.303Z,99196.22
2023-01-04T07:39:16.078Z,99193.72
2023-01-04T07:44:18.919Z,99180.78
2023-01-04T07:49:21.506Z,99213.66
2023-01-04T07:54:24.555Z,99186.22
2023-01-04T07:59:27.143Z,99188.34
2023-01-04T08:04:34.532Z,99197.31
2023-01-04T08:09:37.787Z,99208.31
2023-01-04T08:14:40.290Z,99221.84
2023-01-04T08:19:43.955Z,99185.78
2023-01-04T08:24:46.529Z,99226.47
2023-01-04T08:29:49.135Z,99233.34
2023-01-04T08:34:51.765Z,99240.72
2023-01-04T08:39:54.393Z,99229.31
2023-01-04T08:44:59.819Z,99243.94
2023-01-04T08:50:09.879Z,99234.28
2023-01-04T08:55:16.781Z,99217.03
2023-01-04T09:00:21.898Z,99248.84
2023-01-04T09:05:26.161Z,99233.81
2023-01-04T09:10:28.930Z,99215.13
2023-01-04T09:15:33.623Z,99230.28
2023-01-04T09:20:38.107Z,99224.31
2023-01-04T09:25:41.035Z,99245.31
2023-01-04T09:30:43.702Z,99237.81
2023-01-04T09:35:46.536Z,99234.09
2023-01-04T09:41:10.648Z,99228.84
2023-01-04T09:46:22.894Z,99245.53
2023-01-04T09:51:34.054Z,99241.91
2023-01-04T09:56:37.911Z,99244.38
2023-01-04T10:01:51.675Z,99233.91
2023-01-04T10:06:58.077Z,99225.63
2023-01-04T10:12:18.573Z,99220.09
2023-01-04T10:18:51.962Z,99215.28
2023-01-04T10:23:13.552Z,99226.00
2023-01-04T10:28:47.004Z,99219.00
2023-01-04T10:33:55.728Z,99222.31
2023-01-04T10:39:03.661Z,99201.00
2023-01-04T10:44:22.413Z,99222.22
2023-01-04T10:49:37.772Z,99220.72
2023-01-04T10:55:03.843Z,99211.84
2023-01-04T11:00:18.204Z,99204.69
2023-01-04T11:05:26.768Z,99216.50
2023-01-04T11:10:37.019Z,99224.56
2023-01-04T11:15:42.699Z,99227.00
2023-01-04T11:20:45.442Z,99241.47
2023-01-04T11:25:56.990Z,99233.53
2023-01-04T11:31:26.445Z,99232.53
2023-01-04T11:36:32.115Z,99228.00
2023-01-04T11:41:34.910Z,99198.22
2023-01-04T11:46:37.501Z,99207.41
2023-01-04T11:51:40.979Z,99234.47
2023-01-04T11:57:02.753Z,99225.63
2023-01-04T12:02:11.948Z,99220.94
2023-01-04T12:07:32.314Z,99233.78
2023-01-04T12:12:34.979Z,99226.94
2023-01-04T12:17:53.136Z,99236.00
2023-01-04T12:22:55.975Z,99227.25
2023-01-04T12:27:58.782Z,99223.41
2023-01-04T12:33:30.900Z,99218.47
2023-01-04T12:38:52.030Z,99235.81
2023-01-04T12:43:55.289Z,99199.59
2023-01-04T12:49:03.897Z,99239.72
2023-01-04T12:54:24.821Z,99232.63
2023-01-04T12:59:39.124Z,99226.44
2023-01-04T13:04:42.012Z,99241.88
2023-01-04T13:10:28.151Z,99244.19
2023-01-04T13:15:45.550Z,99245.91
2023-01-04T13:20:48.319Z,99224.97
2023-01-04T13:25:50.964Z,99207.91
2023-01-04T13:31:00.675Z,99221.53
2023-01-04T13:36:10.083Z,99227.53
2023-01-04T13:41:22.165Z,99218.03
2023-01-04T13:46:27.416Z,99211.00
2023-01-04T13:51:37.810Z,99219.75
2023-01-04T13:56:40.734Z,99208.47
2023-01-04T14:01:45.638Z,99206.00
2023-01-04T14:06:51.112Z,99198.22
2023-01-04T14:12:08.600Z,99178.03
2023-01-04T14:17:26.745Z,99199.56
2023-01-04T14:22:40.384Z,99192.44
2023-01-04T14:27:43.086Z,99174.75
2023-01-04T14:33:02.725Z,99180.13
2023-01-04T14:38:11.079Z,99175.66
2023-01-04T14:43:34.750Z,99154.97
2023-01-04T14:48:37.480Z,99151.25
2023-01-04T14:53:40.041Z,99139.53
2023-01-04T14:58:42.922Z,99127.22
2023-01-04T15:03:45.870Z,99127.13
2023-01-04T15:08:49.075Z,99122.41
2023-01-04T15:13:51.628Z,99135.31
2023-01-04T15:18:54.232Z,99124.88
2023-01-04T15:23:56.844Z,99109.97
2023-01-04T15:28:59.498Z,99076.19
2023-01-04T15:34:02.032Z,99092.19
2023-01-04T15:39:05.417Z,99087.66
2023-01-04T15:44:11.518Z,99083.25
2023-01-04T15:49:17.654Z,99072.78
2023-01-04T15:54:22.018Z,99038.88
2023-01-04T15:59:25.782Z,99056.47
2023-01-04T16:04:29.185Z,99045.00
2023-01-04T16:09:31.793Z,99037.13
2023-01-04T16:14:34.611Z,99034.88
2023-01-04T16:19:37.219Z,99020.34
2023-01-04T16:30:04.546Z,98999.16
2023-01-04T16:35:08.397Z,98989.22
2023-01-04T16:40:11.823Z,98978.84
2023-01-04T16:45:15.861Z,98923.81
2023-01-04T16:50:18.458Z,98973.59
2023-01-04T16:55:24.130Z,98967.25
2023-01-04T17:00:27.493Z,98964.47
2023-01-04T17:05:30.445Z,98939.53
2023-01-04T17:10:36.717Z,98950.59
2023-01-04T17:15:43.815Z,98924.75
2023-01-04T17:20:54.756Z,98904.66
2023-01-04T17:26:08.550Z,98908.47
2023-01-04T17:31:16.285Z,98891.88
2023-01-04T17:36:20.559Z,98897.47
2023-01-04T17:41:25.207Z,98883.28
2023-01-04T17:46:32.085Z,98871.22
2023-01-04T17:51:34.995Z,98866.38
2023-01-04T17:56:37.920Z,98860.44
2023-01-04T18:01:41.103Z,98854.66
2023-01-04T18:06:43.728Z,98848.13
2023-01-04T18:11:46.424Z,98847.03
2023-01-04T18:16:58.665Z,98846.47
2023-01-04T18:22:02.484Z,98833.28
2023-01-04T18:27:23.715Z,98844.34
2023-01-04T18:32:27.842Z,98844.25
2023-01-04T18:37:30.753Z,98821.50
2023-01-04T18:42:33.547Z,98817.81
2023-01-04T18:47:36.672Z,98815.50
2023-01-04T18:52:39.527Z,98813.72
2023-01-04T18:57:42.183Z,98806.34
2023-01-04T19:02:44.950Z,98776.53
2023-01-04T19:07:47.780Z,98806.88
2023-01-04T19:12:50.398Z,98801.63
2023-01-04T19:17:52.988Z,98798.25
2023-01-04T19:22:55.527Z,98790.16
2023-01-04T19:27:58.156Z,98790.16
2023-01-04T19:33:00.762Z,98783.66
2023-01-04T19:38:05.685Z,98770.03
2023-01-04T19:43:08.349Z,98776.03
2023-01-04T19:48:10.984Z,98775.06
2023-01-04T19:53:14.109Z,98752.75
2023-01-04T19:58:17.694Z,98768.53
2023-01-04T20:03:24.705Z,98752.75
2023-01-04T20:08:27.370Z,98746.53
2023-01-04T20:13:31.554Z,98757.81
2023-01-04T20:18:35.186Z,98749.06
2023-01-04T20:23:38.794Z,98739.50
2023-01-04T20:28:44.097Z,98747.72
2023-01-04T20:33:47.772Z,98747.13
2023-01-04T20:38:50.357Z,98744.06
2023-01-04T20:43:53.049Z,98740.25
2023-01-04T20:48:55.801Z,98730.97
2023-01-04T20:54:02.151Z,98731.34
2023-01-04T20:59:08.100Z,98734.09
2023-01-04T21:04:10.641Z,98731.19
2023-01-04T21:09:13.273Z,98726.84
2023-01-04T21:14:15.875Z,98708.28
2023-01-04T21:19:18.514Z,98719.16
2023-01-04T21:24:21.061Z,98703.94
2023-01-04T21:29:25.496Z,98711.44
2023-01-04T21:34:31.582Z,98698.84
2023-01-04T21:39:34.230Z,98702.97
2023-01-04T21:44:36.884Z,98699.00
2023-01-04T21:49:43.879Z,98700.44
2023-01-04T21:54:46.958Z,98703.94
2023-01-04T21:59:49.658Z,98714.78
2023-01-04T22:04:52.315Z,98696.34
2023-01-04T22:09:57.571Z,98691.06
2023-01-04T22:15:00.503Z,98684.25
2023-01-04T22:20:03.083Z,98631.34
2023-01-04T22:25:06.215Z,98670.06
2023-01-04T22:30:09.194Z,98676.03
2023-01-04T22:35:11.774Z,98661.81
2023-01-04T22:40:14.758Z,98667.34
2023-01-04T22:45:17.383Z,98659.03
2023-01-04T22:50:19.957Z,98668.31
2023-01-04T22:55:23.175Z,98640.78
2023-01-04T23:00:25.714Z,98659.03
2023-01-04T23:05:28.955Z,98649.91
2023-01-04T23:10:31.457Z,98664.16
2023-01-04T23:15:37.399Z,98650.59
2023-01-04T23:20:39.945Z,98611.81
2023-01-04T23:25:42.524Z,98647.97
2023-01-04T23:30:45.069Z,98645.53
2023-01-04T23:35:47.711Z,98647.91
2023-01-04T23:40:50.262Z,98656.22
2023-01-04T23:45:52.841Z,98646.91
2023-01-04T23:50:56.678Z,98651.41
2023-01-04T23:56:02.918Z,98633.50
